Dades meteomassalio
Diari Summary for Marc 7, 2017 Units:  Metric    English   Both
« Previous Day
Next Day »
Diari Semanal Mensual Anual Personalitzat
  Maxima: Minima: Mijana:
Temperatura: -17.8 °C -12.9 °C -10.3 °C
Rosada: -17.8 °C -15.9 °C -14.3 °C
Humitat: Humidity % 52 % 62 %
Velocitat del vent: 0 km/h 29.8 km/h 62.3 km/h
Racha vent: 0 km/h - -
Vent:- - NW
Pressio: 0 hPa 34601.5 hPa -
Pluja: 0 mm    
Historical Graphs
 
 
Tabular Data for Marc 7, 2017
Time Temperature Dew Point Pressure Wind Wind Speed Wind Gust Humidity Rainfall Rate (Hourly) solar Conditions
-17.8 °C -17.8 °C 0 hPa Calm     Humidity % 0 mm SolarRadiationWatts/m^2 W/m2 Conditions
00:04 -11.7 °C -15.3 °C 34693 hPa WNW 29.8 km/h 29.8 km/h 64 % 0 mm 0.0 W/m2 CLR
00:06 -11.7 °C -15.4 °C 34693 hPa WNW 35.7 km/h 35.7 km/h 64 % 0 mm 0.0 W/m2 CLR
00:10 -11.8 °C -15.3 °C 34693 hPa WNW 41.7 km/h 41.7 km/h 65 % 0 mm 0.0 W/m2 CLR
00:15 -11.8 °C -15.3 °C 34693 hPa WNW 47.6 km/h 47.6 km/h 65 % 0 mm 0.0 W/m2 CLR
00:18 -11.8 °C -15.3 °C 34703.1 hPa WNW 32.8 km/h 32.8 km/h 65 % 0 mm 0.0 W/m2 CLR
00:20 -11.8 °C -15.2 °C 34693 hPa WNW 44.7 km/h 44.7 km/h 66 % 0 mm 0.0 W/m2 CLR
00:25 -11.9 °C -15.3 °C 34703.1 hPa NW 38.8 km/h 38.8 km/h 66 % 0 mm 0.0 W/m2 CLR
00:30 -11.9 °C -15.3 °C 34703.1 hPa WNW 35.7 km/h 35.7 km/h 66 % 0 mm 0.0 W/m2 CLR
00:35 -11.9 °C -15.3 °C 34703.1 hPa NW 38.8 km/h 38.8 km/h 66 % 0 mm 0.0 W/m2 CLR
00:40 -12 °C -15.3 °C 34693 hPa NW 41.7 km/h 41.7 km/h 67 % 0 mm 0.0 W/m2 CLR
00:45 -12 °C -15.2 °C 34693 hPa NNW 32.8 km/h 32.8 km/h 67 % 0 mm 0.0 W/m2 CLR
00:50 -11.9 °C -15.2 °C 34693 hPa WNW 41.7 km/h 41.7 km/h 67 % 0 mm 0.0 W/m2 CLR
00:55 -11.9 °C -15.2 °C 34693 hPa NW 38.8 km/h 38.8 km/h 67 % 0 mm 0.0 W/m2 CLR
01:00 -11.9 °C -15.2 °C 34693 hPa NNW 35.7 km/h 35.7 km/h 67 % 0 mm 0.0 W/m2 CLR
01:05 -11.9 °C -15.2 °C 34693 hPa NW 35.7 km/h 35.7 km/h 67 % 0 mm 0.0 W/m2 CLR
01:10 -12 °C -15.3 °C 34693 hPa NW 33.6 km/h 33.6 km/h 67 % 0 mm 0.0 W/m2 CLR
01:15 -12 °C -15.3 °C 34693 hPa WNW 44.7 km/h 44.7 km/h 67 % 0 mm 0.0 W/m2 CLR
01:20 -12 °C -15.3 °C 34693 hPa WNW 41.7 km/h 41.7 km/h 67 % 0 mm 0.0 W/m2 CLR
01:24 -12.1 °C -15.3 °C 34693 hPa NW 41.7 km/h 41.7 km/h 67 % 0 mm 0.0 W/m2 CLR
01:28 -12.1 °C -15.3 °C 34693 hPa NW 41.7 km/h 41.7 km/h 67 % 0 mm 0.0 W/m2 CLR
01:32 -12.1 °C -15.3 °C 34682.8 hPa WNW 31.1 km/h 32.3 km/h 68 % 0 mm 0.0 W/m2 CLR
01:37 -12.1 °C -15.4 °C 34693 hPa WNW 35.7 km/h 35.7 km/h 67 % 0 mm 0.0 W/m2 CLR
01:42 -12.1 °C -15.3 °C 34682.8 hPa WNW 50.7 km/h 50.7 km/h 67 % 0 mm 0.0 W/m2 CLR
01:47 -12.1 °C -15.4 °C 34693 hPa WNW 32.8 km/h 32.8 km/h 67 % 0 mm 0.0 W/m2 CLR
01:52 -12.1 °C -15.4 °C 34682.8 hPa NW 50.7 km/h 50.7 km/h 67 % 0 mm 0.0 W/m2 CLR
01:53 -12.2 °C -15.4 °C 34682.8 hPa NW 50.7 km/h 50.7 km/h 67 % 0 mm 0.0 W/m2 CLR
01:56 -12.2 °C -15.4 °C 34693 hPa NW 50.7 km/h 50.7 km/h 67 % 0 mm 0.0 W/m2 CLR
02:00 -12.2 °C -15.4 °C 34693 hPa NW 50.7 km/h 50.7 km/h 67 % 0 mm 0.0 W/m2 CLR
02:02 -12.2 °C -15.4 °C 34682.8 hPa WNW 53.6 km/h 53.6 km/h 67 % 0 mm 0.0 W/m2 CLR
02:07 -12.2 °C -15.4 °C 34682.8 hPa WNW 44.7 km/h 44.7 km/h 67 % 0 mm 0.0 W/m2 CLR
02:12 -12.2 °C -15.4 °C 34682.8 hPa WNW 47.6 km/h 47.6 km/h 67 % 0 mm 0.0 W/m2 CLR
02:17 -12.2 °C -15.4 °C 34682.8 hPa WNW 50.7 km/h 50.7 km/h 67 % 0 mm 0.0 W/m2 CLR
02:22 -12.2 °C -15.4 °C 34682.8 hPa WNW 62.6 km/h 62.6 km/h 67 % 0 mm 0.0 W/m2 CLR
02:27 -12.2 °C -15.4 °C 34682.8 hPa WNW 59.5 km/h 59.5 km/h 67 % 0 mm 0.0 W/m2 CLR
02:32 -12.1 °C -15.4 °C 34682.8 hPa WNW 62.6 km/h 62.6 km/h 67 % 0 mm 0.0 W/m2 CLR
02:37 -12.2 °C -15.4 °C 34682.8 hPa NW 56.6 km/h 56.6 km/h 67 % 0 mm 0.0 W/m2 CLR
02:42 -12.2 °C -15.5 °C 34682.8 hPa WNW 62.6 km/h 62.6 km/h 66 % 0 mm 0.0 W/m2 CLR
02:47 -12.2 °C -15.4 °C 34682.8 hPa WNW 53.6 km/h 53.6 km/h 67 % 0 mm 0.0 W/m2 CLR
02:52 -12.2 °C -15.6 °C 34682.8 hPa NW 46.7 km/h 46.7 km/h 66 % 0 mm 0.0 W/m2 CLR
02:57 -12.2 °C -15.6 °C 34693 hPa WNW 65.5 km/h 65.5 km/h 66 % 0 mm 0.0 W/m2 CLR
02:58 -12.2 °C -15.5 °C 34693 hPa WNW 65.5 km/h 65.5 km/h 66 % 0 mm 0.0 W/m2 CLR
03:03 -12.2 °C -15.4 °C 34682.8 hPa WNW 68.6 km/h 68.6 km/h 67 % 0 mm 0.0 W/m2 CLR
03:08 -12.2 °C -15.6 °C 34682.8 hPa WNW 59.5 km/h 59.5 km/h 66 % 0 mm 0.0 W/m2 CLR
03:13 -12.2 °C -15.4 °C 34669.3 hPa WNW 50.7 km/h 50.7 km/h 67 % 0 mm 0.0 W/m2 CLR
03:18 -12.3 °C -15.5 °C 34669.3 hPa WNW 51.8 km/h 51.8 km/h 67 % 0 mm 0.0 W/m2 CLR
03:23 -12.3 °C -15.5 °C 34669.3 hPa WNW 50.7 km/h 50.7 km/h 67 % 0 mm 0.0 W/m2 CLR
03:28 -12.3 °C -15.4 °C 34669.3 hPa West 59.5 km/h 59.5 km/h 68 % 0 mm 0.0 W/m2 CLR
03:33 -12.3 °C -15.4 °C 34669.3 hPa WNW 50.7 km/h 50.7 km/h 68 % 0 mm 0.0 W/m2 CLR
03:38 -12.3 °C -15.4 °C 34669.3 hPa WNW 50.7 km/h 50.7 km/h 68 % 0 mm 0.0 W/m2 CLR
03:43 -12.4 °C -15.5 °C 34669.3 hPa WNW 50.7 km/h 50.7 km/h 68 % 0 mm 0.0 W/m2 CLR
03:48 -12.4 °C -15.4 °C 34669.3 hPa WNW 53.6 km/h 53.6 km/h 69 % 0 mm 0.0 W/m2 CLR
03:53 -12.4 °C -15.4 °C 34669.3 hPa WNW 57 km/h 57 km/h 69 % 0 mm 0.0 W/m2 CLR
03:58 -12.4 °C -15.5 °C 34659.1 hPa WNW 62.6 km/h 62.6 km/h 68 % 0 mm 0.0 W/m2 CLR
04:03 -12.4 °C -15.6 °C 34669.3 hPa WNW 59.5 km/h 59.5 km/h 68 % 0 mm 0.0 W/m2 CLR
04:08 -12.4 °C -15.6 °C 34659.1 hPa WNW 62.6 km/h 62.6 km/h 68 % 0 mm 0.0 W/m2 CLR
04:13 -12.4 °C -15.6 °C 34659.1 hPa WNW 74.5 km/h 74.5 km/h 67 % 0 mm 0.0 W/m2 CLR
04:18 -12.4 °C -15.7 °C 34659.1 hPa WNW 65.5 km/h 65.5 km/h 67 % 0 mm 0.0 W/m2 CLR
04:23 -12.4 °C -15.6 °C 34659.1 hPa West 62.6 km/h 62.6 km/h 68 % 0 mm 0.0 W/m2 CLR
04:28 -12.4 °C -15.7 °C 34659.1 hPa West 56.6 km/h 56.6 km/h 67 % 0 mm 0.0 W/m2 CLR
04:33 -12.4 °C -15.6 °C 34645.6 hPa WNW 59.5 km/h 59.5 km/h 67 % 0 mm 0.0 W/m2 CLR
04:38 -12.4 °C -15.7 °C 34645.6 hPa WNW 56.6 km/h 56.6 km/h 67 % 0 mm 0.0 W/m2 CLR
04:43 -12.4 °C -15.7 °C 34659.1 hPa WNW 65.5 km/h 65.5 km/h 67 % 0 mm 0.0 W/m2 CLR
04:48 -12.4 °C -15.7 °C 34645.6 hPa WNW 59.5 km/h 59.5 km/h 67 % 0 mm 0.0 W/m2 CLR
04:53 -12.4 °C -15.7 °C 34645.6 hPa WNW 68.6 km/h 68.6 km/h 67 % 0 mm 0.0 W/m2 CLR
04:58 -12.4 °C -15.7 °C 34659.1 hPa NW 59.5 km/h 59.5 km/h 67 % 0 mm 0.0 W/m2 CLR
05:03 -12.4 °C -15.7 °C 34659.1 hPa WNW 53.6 km/h 53.6 km/h 67 % 0 mm 0.0 W/m2 CLR
05:08 -12.5 °C -15.7 °C 34659.1 hPa NW 50.7 km/h 50.7 km/h 67 % 0 mm 0.0 W/m2 CLR
05:13 -12.6 °C -15.8 °C 34645.6 hPa West 62.6 km/h 62.6 km/h 67 % 0 mm 0.0 W/m2 CLR
05:18 -12.6 °C -15.7 °C 34659.1 hPa WNW 56.6 km/h 56.6 km/h 68 % 0 mm 0.0 W/m2 CLR
05:23 -12.6 °C -15.7 °C 34659.1 hPa WNW 62.6 km/h 62.6 km/h 68 % 0 mm 0.0 W/m2 CLR
05:28 -12.6 °C -15.7 °C 34659.1 hPa West 56.6 km/h 56.6 km/h 68 % 0 mm 0.0 W/m2 CLR
05:33 -12.6 °C -15.7 °C 34659.1 hPa WNW 53.6 km/h 53.6 km/h 68 % 0 mm 0.0 W/m2 CLR
05:38 -12.7 °C -15.7 °C 34659.1 hPa WNW 47.6 km/h 47.6 km/h 69 % 0 mm 0.0 W/m2 CLR
05:43 -12.7 °C -15.7 °C 34659.1 hPa WNW 59.5 km/h 59.5 km/h 69 % 0 mm 0.0 W/m2 CLR
05:48 -12.7 °C -15.7 °C 34645.6 hPa West 41.7 km/h 41.7 km/h 69 % 0 mm 0.0 W/m2 CLR
05:53 -12.7 °C -15.7 °C 34659.1 hPa WNW 51.8 km/h 51.8 km/h 69 % 0 mm 0.0 W/m2 CLR
05:58 -12.7 °C -15.7 °C 34659.1 hPa WNW 51.8 km/h 51.8 km/h 69 % 0 mm 0.0 W/m2 CLR
06:03 -12.7 °C -15.7 °C 34659.1 hPa WNW 59.5 km/h 59.5 km/h 69 % 0 mm 0.0 W/m2 CLR
06:08 -12.7 °C -15.7 °C 34659.1 hPa WNW 68.6 km/h 68.6 km/h 69 % 0 mm 0.0 W/m2 CLR
06:13 -12.7 °C -15.7 °C 34669.3 hPa WNW 49.2 km/h 49.2 km/h 69 % 0 mm 0.0 W/m2 CLR
06:18 -12.7 °C -15.7 °C 34669.3 hPa WNW 51.8 km/h 51.8 km/h 69 % 0 mm 0.0 W/m2 CLR
06:23 -12.8 °C -15.8 °C 34669.3 hPa NW 54.4 km/h 54.4 km/h 69 % 0 mm 0.0 W/m2 CLR
06:28 -12.8 °C -15.8 °C 34682.8 hPa WNW 41.7 km/h 41.7 km/h 69 % 0 mm 0.0 W/m2 CLR
06:33 -12.8 °C -15.8 °C 34669.3 hPa NW 53.6 km/h 53.6 km/h 69 % 0 mm 0.0 W/m2 CLR
06:38 -12.8 °C -15.9 °C 34682.8 hPa NW 47.6 km/h 47.6 km/h 68 % 0 mm 0.0 W/m2 CLR
06:43 -12.8 °C -15.9 °C 34682.8 hPa WNW 50.7 km/h 50.7 km/h 68 % 0 mm 0.0 W/m2 CLR
06:48 -12.9 °C -15.9 °C 34682.8 hPa NW 53.6 km/h 53.6 km/h 69 % 0 mm 0.0 W/m2 CLR
06:53 -12.9 °C -15.9 °C 34682.8 hPa WNW 56.6 km/h 56.6 km/h 69 % 0 mm 0.0 W/m2 CLR
06:58 -12.9 °C -15.9 °C 34682.8 hPa WNW 50.7 km/h 50.7 km/h 69 % 0 mm 0.0 W/m2 CLR
07:04 -12.9 °C -15.9 °C 34682.8 hPa WNW 56.6 km/h 56.6 km/h 69 % 0 mm 0.0 W/m2 CLR
07:09 -12.9 °C -15.9 °C 34682.8 hPa WNW 44.7 km/h 44.7 km/h 69 % 0 mm 0.0 W/m2 CLR
07:14 -12.9 °C -15.9 °C 34682.8 hPa WNW 53.6 km/h 53.6 km/h 69 % 0 mm 0.0 W/m2 CLR
07:19 -12.9 °C -15.9 °C 34682.8 hPa WNW 56.6 km/h 56.6 km/h 69 % 0 mm 0.0 W/m2 OVC
07:24 -12.9 °C -15.9 °C 34682.8 hPa WNW 53.6 km/h 53.6 km/h 69 % 0 mm 0.0 W/m2 OVC
07:29 -12.9 °C -15.9 °C 34682.8 hPa NW 56.6 km/h 56.6 km/h 69 % 0 mm 5.0 W/m2 OVC
07:34 -12.9 °C -15.9 °C 34682.8 hPa NW 59.5 km/h 59.5 km/h 69 % 0 mm 11.0 W/m2 BKN
07:39 -12.9 °C -15.9 °C 34682.8 hPa WNW 53.6 km/h 53.6 km/h 69 % 0 mm 12.0 W/m2 BKN
07:44 -12.9 °C -15.9 °C 34682.8 hPa West 56.6 km/h 56.6 km/h 69 % 0 mm 16.0 W/m2 BKN
07:49 -12.8 °C -15.8 °C 34682.8 hPa NW 53.6 km/h 53.6 km/h 69 % 0 mm 19.0 W/m2 BKN
07:54 -12.8 °C -15.8 °C 34693 hPa WNW 50.7 km/h 50.7 km/h 69 % 0 mm 25.0 W/m2 BKN
07:59 -12.8 °C -15.8 °C 34682.8 hPa West 53.6 km/h 53.6 km/h 69 % 0 mm 33.0 W/m2 BKN
08:04 -12.7 °C -15.7 °C 34682.8 hPa WNW 59.5 km/h 59.5 km/h 69 % 0 mm 40.0 W/m2 BKN
08:09 -12.7 °C -15.7 °C 34693 hPa WNW 50.7 km/h 50.7 km/h 69 % 0 mm 56.0 W/m2 SCT
08:14 -12.6 °C -15.7 °C 34693 hPa WNW 56.6 km/h 56.6 km/h 68 % 0 mm 62.0 W/m2 SCT
08:19 -12.6 °C -15.7 °C 34693 hPa WNW 56.6 km/h 56.6 km/h 68 % 0 mm 83.0 W/m2 FEW
08:24 -12.4 °C -15.6 °C 34693 hPa West 53.6 km/h 53.6 km/h 68 % 0 mm 91.0 W/m2 CLR
08:29 -12.4 °C -15.6 °C 34693 hPa WNW 53.6 km/h 53.6 km/h 67 % 0 mm 121.0 W/m2 CLR
08:34 -12.3 °C -15.5 °C 34693 hPa WNW 62.6 km/h 62.6 km/h 67 % 0 mm 148.0 W/m2 CLR
08:39 -12.2 °C -15.6 °C 34693 hPa NW 68.6 km/h 68.6 km/h 66 % 0 mm 162.0 W/m2 CLR
08:44 -12.1 °C -15.4 °C 34693 hPa WNW 65.5 km/h 65.5 km/h 66 % 0 mm 185.0 W/m2 CLR
08:49 -12.1 °C -15.4 °C 34693 hPa NW 62.6 km/h 62.6 km/h 66 % 0 mm 192.0 W/m2 CLR
08:54 -12 °C -15.4 °C 34703.1 hPa NW 44.7 km/h 44.7 km/h 66 % 0 mm 206.0 W/m2 CLR
08:59 -11.9 °C -15.4 °C 34703.1 hPa WNW 56.6 km/h 56.6 km/h 65 % 0 mm 229.0 W/m2 CLR
09:04 -11.8 °C -15.4 °C 34703.1 hPa WNW 56.6 km/h 56.6 km/h 65 % 0 mm 246.0 W/m2 CLR
09:09 -11.7 °C -15.5 °C 34703.1 hPa WNW 56.6 km/h 56.6 km/h 63 % 0 mm 264.0 W/m2 CLR
09:14 -11.6 °C -15.4 °C 34693 hPa NW 57 km/h 57 km/h 63 % 0 mm 278.0 W/m2 CLR
09:19 -11.6 °C -15.4 °C 34703.1 hPa WNW 59.5 km/h 59.5 km/h 62 % 0 mm 295.0 W/m2 CLR
09:24 -11.5 °C -15.2 °C 34703.1 hPa NW 50.7 km/h 50.7 km/h 63 % 0 mm 302.0 W/m2 CLR
09:29 -11.4 °C -15.4 °C 34703.1 hPa NW 59.5 km/h 59.5 km/h 61 % 0 mm 315.0 W/m2 CLR
09:34 -11.3 °C -15.4 °C 34703.1 hPa WNW 44.7 km/h 44.7 km/h 61 % 0 mm 330.0 W/m2 CLR
09:39 -11.3 °C -15.4 °C 34703.1 hPa NW 59.5 km/h 59.5 km/h 60 % 0 mm 346.0 W/m2 CLR
09:44 -11.3 °C -15.4 °C 34703.1 hPa NW 68.6 km/h 68.6 km/h 60 % 0 mm 360.0 W/m2 CLR
09:49 -11.2 °C -15.3 °C 34693 hPa NW 50.7 km/h 50.7 km/h 60 % 0 mm 374.0 W/m2 CLR
09:54 -11.1 °C -15.4 °C 34693 hPa WNW 59.5 km/h 59.5 km/h 59 % 0 mm 388.0 W/m2 CLR
09:59 -11.1 °C -15.4 °C 34682.8 hPa NW 74.5 km/h 74.5 km/h 59 % 0 mm 399.0 W/m2 CLR
10:04 -11.1 °C -15.2 °C 34682.8 hPa NW 65.5 km/h 65.5 km/h 60 % 0 mm 417.0 W/m2 CLR
10:09 -11 °C -15.2 °C 34682.8 hPa NW 62.6 km/h 62.6 km/h 60 % 0 mm 431.0 W/m2 CLR
10:14 -10.8 °C -15.1 °C 34682.8 hPa WNW 51.8 km/h 51.8 km/h 60 % 0 mm 441.0 W/m2 CLR
10:19 -10.8 °C -15.1 °C 34682.8 hPa WNW 65.5 km/h 65.5 km/h 59 % 0 mm 457.0 W/m2 CLR
10:24 -10.8 °C -15.1 °C 34682.8 hPa NW 50.7 km/h 50.7 km/h 59 % 0 mm 469.0 W/m2 CLR
10:29 -10.6 °C -14.9 °C 34682.8 hPa NNW 47.6 km/h 47.6 km/h 59 % 0 mm 482.0 W/m2 CLR
10:34 -10.5 °C -15 °C 34682.8 hPa NW 74.5 km/h 74.5 km/h 58 % 0 mm 494.0 W/m2 CLR
10:39 -10.4 °C -15.2 °C 34669.3 hPa NW 74.5 km/h 74.5 km/h 56 % 0 mm 508.0 W/m2 CLR
10:44 -10.3 °C -15.2 °C 34669.3 hPa NW 83.4 km/h 83.4 km/h 55 % 0 mm 519.0 W/m2 CLR
10:49 -10.2 °C -14.9 °C 34659.1 hPa NW 71.5 km/h 71.5 km/h 56 % 0 mm 531.0 W/m2 CLR
10:54 -10.1 °C -14.9 °C 34659.1 hPa NNW 74.5 km/h 74.5 km/h 56 % 0 mm 541.0 W/m2 CLR
10:59 -10 °C -14.8 °C 34659.1 hPa NW 71.5 km/h 71.5 km/h 56 % 0 mm 559.0 W/m2 CLR
11:04 -9.9 °C -14.9 °C 34659.1 hPa NW 77.4 km/h 77.4 km/h 55 % 0 mm 561.0 W/m2 CLR
11:09 -9.8 °C -14.7 °C 34659.1 hPa WNW 56.6 km/h 56.6 km/h 56 % 0 mm 564.0 W/m2 CLR
11:15 -9.8 °C -14.8 °C 34659.1 hPa NW 80.5 km/h 80.5 km/h 55 % 0 mm 541.0 W/m2 CLR
11:20 -9.7 °C -14.7 °C 34659.1 hPa NW 68.6 km/h 68.6 km/h 55 % 0 mm 603.0 W/m2 CLR
11:25 -9.6 °C -14.8 °C 34659.1 hPa NNW 71.5 km/h 71.5 km/h 54 % 0 mm 613.0 W/m2 CLR
11:30 -9.6 °C -14.7 °C 34645.6 hPa WNW 68.6 km/h 68.6 km/h 54 % 0 mm 608.0 W/m2 CLR
11:35 -9.4 °C -14.7 °C 34645.6 hPa NNW 71.5 km/h 71.5 km/h 53 % 0 mm 619.0 W/m2 CLR
11:40 -9.3 °C -14.6 °C 34645.6 hPa NNW 62.6 km/h 62.6 km/h 53 % 0 mm 564.0 W/m2 CLR
11:45 -9.4 °C -14.5 °C 34645.6 hPa WNW 75.2 km/h 75.2 km/h 54 % 0 mm 633.0 W/m2 CLR
11:50 -9.4 °C -14.8 °C 34659.1 hPa NW 83.4 km/h 83.4 km/h 52 % 0 mm 636.0 W/m2 CLR
11:55 -9.3 °C -14.6 °C 34659.1 hPa NNW 89.3 km/h 89.3 km/h 53 % 0 mm 643.0 W/m2 CLR
12:00 -9.3 °C -14.6 °C 34659.1 hPa NW 80.5 km/h 80.5 km/h 53 % 0 mm 645.0 W/m2 CLR
12:05 -9.2 °C -14.3 °C 34659.1 hPa WNW 68.6 km/h 68.6 km/h 54 % 0 mm 654.0 W/m2 CLR
12:10 -9.2 °C -14.4 °C 34659.1 hPa NW 77.4 km/h 77.4 km/h 54 % 0 mm 663.0 W/m2 CLR
12:15 -9.1 °C -14.3 °C 34669.3 hPa NNW 77.4 km/h 77.4 km/h 54 % 0 mm 664.0 W/m2 CLR
12:20 -9.1 °C -14.3 °C 34645.6 hPa WNW 71.5 km/h 71.5 km/h 54 % 0 mm 670.0 W/m2 CLR
12:25 -8.9 °C -14.1 °C 34645.6 hPa NNW 56.6 km/h 56.6 km/h 54 % 0 mm 675.0 W/m2 CLR
12:30 -8.8 °C -13.8 °C 34659.1 hPa NW 67.3 km/h 67.3 km/h 55 % 0 mm 679.0 W/m2 CLR
12:35 -8.7 °C -13.9 °C 34645.6 hPa West 68.6 km/h 68.6 km/h 54 % 0 mm 684.0 W/m2 CLR
12:40 -8.6 °C -13.7 °C 34635.4 hPa NW 59.5 km/h 59.5 km/h 54 % 0 mm 687.0 W/m2 CLR
12:45 -8.4 °C -13.7 °C 34645.6 hPa NNW 71.5 km/h 71.5 km/h 54 % 0 mm 687.0 W/m2 CLR
12:50 -8.4 °C -13.5 °C 34645.6 hPa NW 65.5 km/h 65.5 km/h 55 % 0 mm 689.0 W/m2 CLR
12:55 -8.4 °C -13.4 °C 34659.1 hPa NW 77.7 km/h 77.7 km/h 56 % 0 mm 693.0 W/m2 CLR
13:00 -8.4 °C -13.5 °C 34645.6 hPa NNW 75.2 km/h 75.2 km/h 55 % 0 mm 689.0 W/m2 CLR
13:05 -8.6 °C -13.5 °C 34659.1 hPa NNW 116.2 km/h 116.2 km/h 56 % 0 mm 687.0 W/m2 CLR
13:10 -8.6 °C -13.5 °C 34645.6 hPa NNW 62.6 km/h 62.6 km/h 56 % 0 mm 689.0 W/m2 CLR
13:15 -8.4 °C -13.3 °C 34645.6 hPa NNW 74.5 km/h 74.5 km/h 56 % 0 mm 693.0 W/m2 CLR
13:20 -8.4 °C -13.5 °C 34645.6 hPa NNW 83.4 km/h 83.4 km/h 55 % 0 mm 693.0 W/m2 CLR
13:25 -8.5 °C -13.6 °C 34645.6 hPa NW 64.7 km/h 64.7 km/h 55 % 0 mm 708.0 W/m2 CLR
13:30 -8.4 °C -13.4 °C 34645.6 hPa NW 80.5 km/h 80.5 km/h 55 % 0 mm 689.0 W/m2 CLR
13:35 -8.4 °C -13.3 °C 34635.4 hPa NW 74.5 km/h 74.5 km/h 56 % 0 mm 691.0 W/m2 CLR
13:40 -8.3 °C -13.4 °C 34645.6 hPa NW 68.6 km/h 68.6 km/h 55 % 0 mm 689.0 W/m2 CLR
13:45 -8.2 °C -13.3 °C 34635.4 hPa WNW 47.6 km/h 47.6 km/h 55 % 0 mm 684.0 W/m2 CLR
13:50 -8 °C -13.1 °C 34635.4 hPa NW 44.7 km/h 44.7 km/h 55 % 0 mm 682.0 W/m2 CLR
13:55 -8 °C -13.1 °C 34635.4 hPa NNW 47.6 km/h 47.6 km/h 55 % 0 mm 679.0 W/m2 CLR
14:00 -7.9 °C -13.2 °C 34625.2 hPa NNW 86.4 km/h 86.4 km/h 54 % 0 mm 673.0 W/m2 CLR
14:05 -7.9 °C -13.2 °C 34635.4 hPa NNW 89.3 km/h 89.3 km/h 54 % 0 mm 668.0 W/m2 CLR
14:10 -8.1 °C -13 °C 34625.2 hPa NW 83.4 km/h 83.4 km/h 56 % 0 mm 668.0 W/m2 CLR
14:15 -8.1 °C -13.2 °C 34625.2 hPa NNW 74.5 km/h 74.5 km/h 55 % 0 mm 650.0 W/m2 CLR
14:20 -8.1 °C -13.2 °C 34625.2 hPa NNW 83.4 km/h 83.4 km/h 55 % 0 mm 659.0 W/m2 CLR
14:25 -8.1 °C -13.2 °C 34625.2 hPa NNW 89.3 km/h 89.3 km/h 55 % 0 mm 647.0 W/m2 CLR
14:30 -8.1 °C -13.1 °C 34625.2 hPa NW 77.7 km/h 77.7 km/h 56 % 0 mm 649.0 W/m2 CLR
14:35 -8.2 °C -13.1 °C 34635.4 hPa NNW 68.6 km/h 68.6 km/h 56 % 0 mm 636.0 W/m2 CLR
14:40 -7.9 °C -13.1 °C 34625.2 hPa NW 68.6 km/h 68.6 km/h 55 % 0 mm 633.0 W/m2 CLR
14:45 -8 °C -13.1 °C 34625.2 hPa NNW 77.4 km/h 77.4 km/h 55 % 0 mm 628.0 W/m2 CLR
14:50 -8.1 °C -13.2 °C 34625.2 hPa NNW 95.8 km/h 95.8 km/h 55 % 0 mm 624.0 W/m2 CLR
14:55 -8 °C -13.1 °C 34611.7 hPa NW 85.5 km/h 85.5 km/h 55 % 0 mm 621.0 W/m2 CLR
15:00 -8 °C -12.9 °C 34625.2 hPa NNW 65.5 km/h 65.5 km/h 56 % 0 mm 617.0 W/m2 CLR
15:05 -7.9 °C -12.9 °C 34611.7 hPa NNW 75.2 km/h 75.2 km/h 55 % 0 mm 626.0 W/m2 CLR
15:10 -7.9 °C -13 °C 34611.7 hPa North 68.6 km/h 68.6 km/h 55 % 0 mm 650.0 W/m2 CLR
15:15 -7.8 °C -12.7 °C 34611.7 hPa North 57 km/h 57 km/h 56 % 0 mm 603.0 W/m2 CLR
15:20 -7.7 °C -12.8 °C 34611.7 hPa North 69.8 km/h 69.8 km/h 55 % 0 mm 594.0 W/m2 CLR
15:25 -7.7 °C -12.8 °C 34611.7 hPa NW 77.4 km/h 77.4 km/h 55 % 0 mm 592.0 W/m2 CLR
15:30 -7.7 °C -12.8 °C 34611.7 hPa North 71.5 km/h 71.5 km/h 55 % 0 mm 575.0 W/m2 CLR
15:35 -7.7 °C -12.8 °C 34601.5 hPa NW 77.4 km/h 77.4 km/h 55 % 0 mm 693.0 W/m2 CLR
15:40 -7.7 °C -12.7 °C 34601.5 hPa NNW 74.5 km/h 74.5 km/h 56 % 0 mm 680.0 W/m2 CLR
15:45 -7.7 °C -12.8 °C 34611.7 hPa NNW 68.6 km/h 68.6 km/h 55 % 0 mm 680.0 W/m2 CLR
15:50 -7.7 °C -13 °C 34611.7 hPa NNW 95.8 km/h 95.8 km/h 54 % 0 mm 248.0 W/m2 CLR
15:55 -8.1 °C -13.2 °C 34611.7 hPa NW 86.4 km/h 86.4 km/h 55 % 0 mm 130.0 W/m2 CLR
16:00 -8.1 °C -13.1 °C 34601.5 hPa NW 59.5 km/h 59.5 km/h 56 % 0 mm 130.0 W/m2 CLR
16:05 -7.9 °C -12.9 °C 34601.5 hPa NW 82.9 km/h 82.9 km/h 56 % 0 mm 455.0 W/m2 CLR
16:10 -7.8 °C -13 °C 34601.5 hPa NW 80.5 km/h 80.5 km/h 54 % 0 mm 432.0 W/m2 CLR
16:15 -7.7 °C -13.1 °C 34601.5 hPa NNW 89.3 km/h 89.3 km/h 53 % 0 mm 420.0 W/m2 CLR
16:20 -7.6 °C -13.2 °C 34601.5 hPa NNW 80.5 km/h 80.5 km/h 52 % 0 mm 399.0 W/m2 CLR
16:25 -7.6 °C -13 °C 34625.2 hPa NW 62.6 km/h 62.6 km/h 53 % 0 mm 387.0 W/m2 CLR
16:30 -7.6 °C -13 °C 34611.7 hPa NW 80.5 km/h 80.5 km/h 53 % 0 mm 404.0 W/m2 CLR
16:36 -7.6 °C -13 °C 34625.2 hPa NNW 62.6 km/h 62.6 km/h 53 % 0 mm 381.0 W/m2 CLR
16:41 -7.6 °C -13 °C 34625.2 hPa WNW 59.5 km/h 59.5 km/h 53 % 0 mm 425.0 W/m2 CLR
16:46 -7.6 °C -13.2 °C 34611.7 hPa WNW 86.4 km/h 86.4 km/h 52 % 0 mm 434.0 W/m2 CLR
16:51 -7.6 °C -13.2 °C 34611.7 hPa NNW 83.4 km/h 83.4 km/h 52 % 0 mm 394.0 W/m2 CLR
16:56 -7.6 °C -13 °C 34611.7 hPa NW 47.6 km/h 47.6 km/h 53 % 0 mm 352.0 W/m2 CLR
17:01 -7.5 °C -12.9 °C 34611.7 hPa NW 29.8 km/h 29.8 km/h 53 % 0 mm 302.0 W/m2 CLR
17:06 -7.6 °C -12.9 °C 34611.7 hPa NW 64.7 km/h 64.7 km/h 53 % 0 mm 302.0 W/m2 CLR
17:11 -7.5 °C -13.1 °C 34611.7 hPa NNW 50.7 km/h 50.7 km/h 52 % 0 mm 308.0 W/m2 CLR
17:16 -7.6 °C -13.2 °C 34611.7 hPa NW 74.5 km/h 74.5 km/h 52 % 0 mm 294.0 W/m2 CLR
17:21 -7.6 °C -13.2 °C 34611.7 hPa West 56.6 km/h 56.6 km/h 52 % 0 mm 283.0 W/m2 CLR
17:26 -7.6 °C -13.2 °C 34611.7 hPa NNW 80.5 km/h 80.5 km/h 52 % 0 mm 230.0 W/m2 CLR
17:31 -7.7 °C -13.2 °C 34611.7 hPa NNW 59.5 km/h 59.5 km/h 52 % 0 mm 195.0 W/m2 CLR
17:36 -7.7 °C -13.3 °C 34625.2 hPa NW 59.5 km/h 59.5 km/h 52 % 0 mm 123.0 W/m2 CLR
17:41 -7.8 °C -13.2 °C 34611.7 hPa NNW 64.7 km/h 64.7 km/h 53 % 0 mm 98.0 W/m2 CLR
17:46 -7.9 °C -13.3 °C 34611.7 hPa NNW 65.5 km/h 65.5 km/h 53 % 0 mm 98.0 W/m2 CLR
17:51 -8 °C -13.6 °C 34625.2 hPa NNW 59.5 km/h 59.5 km/h 52 % 0 mm 53.0 W/m2 FEW
17:56 -8.2 °C -13.5 °C 34625.2 hPa NW 65.5 km/h 65.5 km/h 53 % 0 mm 44.0 W/m2 SCT
18:01 -8.2 °C -13.4 °C 34625.2 hPa NW 71.5 km/h 71.5 km/h 54 % 0 mm 46.0 W/m2 SCT
18:06 -8.3 °C -13.4 °C 34625.2 hPa NNW 56.6 km/h 56.6 km/h 55 % 0 mm 46.0 W/m2 SCT
18:11 -8.3 °C -13.2 °C 34625.2 hPa WNW 50.7 km/h 50.7 km/h 56 % 0 mm 49.0 W/m2 SCT
18:16 -8.4 °C -13.3 °C 34625.2 hPa NNW 65.5 km/h 65.5 km/h 56 % 0 mm 47.0 W/m2 SCT
18:21 -8.4 °C -13.3 °C 34625.2 hPa NNW 74.5 km/h 74.5 km/h 56 % 0 mm 42.0 W/m2 BKN
18:26 -8.4 °C -13.3 °C 34625.2 hPa NNW 56.6 km/h 56.6 km/h 56 % 0 mm 40.0 W/m2 BKN
18:31 -8.4 °C -13.3 °C 34625.2 hPa NW 69.8 km/h 69.8 km/h 56 % 0 mm 32.0 W/m2 BKN
18:36 -8.4 °C -13.5 °C 34625.2 hPa NNW 68.6 km/h 68.6 km/h 55 % 0 mm 25.0 W/m2 BKN
18:41 -8.5 °C -13.4 °C 34625.2 hPa NNW 62.6 km/h 62.6 km/h 56 % 0 mm 18.0 W/m2 BKN
18:46 -8.5 °C -13.4 °C 34625.2 hPa NNW 65.5 km/h 65.5 km/h 56 % 0 mm 12.0 W/m2 BKN
18:51 -8.6 °C -13.4 °C 34625.2 hPa NNW 53.6 km/h 53.6 km/h 56 % 0 mm 7.0 W/m2 BKN
18:56 -8.6 °C -13.4 °C 34625.2 hPa NW 56.6 km/h 56.6 km/h 57 % 0 mm 0.0 W/m2 OVC
19:01 -8.7 °C -13.4 °C 34635.4 hPa NNW 62.6 km/h 62.6 km/h 57 % 0 mm 0.0 W/m2 CLR
19:06 -8.7 °C -13.4 °C 34635.4 hPa NNW 44.7 km/h 44.7 km/h 57 % 0 mm 0.0 W/m2 CLR
19:11 -8.8 °C -13.5 °C 34645.6 hPa North 53.6 km/h 53.6 km/h 57 % 0 mm 0.0 W/m2 CLR
19:16 -8.8 °C -13.4 °C 34645.6 hPa NW 44.7 km/h 44.7 km/h 58 % 0 mm 0.0 W/m2 CLR
19:21 -8.8 °C -13.4 °C 34635.4 hPa NW 47.6 km/h 47.6 km/h 58 % 0 mm 0.0 W/m2 CLR
19:26 -8.8 °C -13.3 °C 34645.6 hPa NW 56.6 km/h 56.6 km/h 59 % 0 mm 0.0 W/m2 CLR
19:31 -8.9 °C -13.3 °C 34645.6 hPa NNW 62.6 km/h 62.6 km/h 59 % 0 mm 0.0 W/m2 CLR
19:36 -8.9 °C -13.3 °C 34645.6 hPa NW 53.6 km/h 53.6 km/h 60 % 0 mm 0.0 W/m2 CLR
19:41 -8.9 °C -13.3 °C 34645.6 hPa NW 65.5 km/h 65.5 km/h 60 % 0 mm 0.0 W/m2 CLR
19:46 -9 °C -13.2 °C 34645.6 hPa NW 59.5 km/h 59.5 km/h 61 % 0 mm 0.0 W/m2 CLR
19:51 -9.1 °C -13.2 °C 34659.1 hPa NW 62.6 km/h 62.6 km/h 61 % 0 mm 0.0 W/m2 CLR
20:01 -9.1 °C -13 °C 34659.1 hPa NNW 72.6 km/h 72.6 km/h 63 % 0 mm 0.0 W/m2 CLR
20:06 -9.2 °C -13.1 °C 34659.1 hPa NNW 53.6 km/h 53.6 km/h 63 % 0 mm 0.0 W/m2 CLR
20:11 -9.2 °C -12.9 °C 34659.1 hPa NW 65.5 km/h 65.5 km/h 64 % 0 mm 0.0 W/m2 CLR
20:16 -9.2 °C -12.9 °C 34659.1 hPa NW 65.5 km/h 65.5 km/h 64 % 0 mm 0.0 W/m2 CLR
20:21 -9.2 °C -13 °C 34645.6 hPa NW 54.4 km/h 54.4 km/h 64 % 0 mm 0.0 W/m2 CLR
20:26 -9.3 °C -12.9 °C 34645.6 hPa NW 65.5 km/h 65.5 km/h 65 % 0 mm 0.0 W/m2 CLR
20:31 -9.3 °C -12.9 °C 34645.6 hPa NW 80.5 km/h 80.5 km/h 65 % 0 mm 0.0 W/m2 CLR
20:36 -9.3 °C -12.9 °C 34645.6 hPa NW 77.4 km/h 77.4 km/h 65 % 0 mm 0.0 W/m2 CLR
20:41 -9.3 °C -12.9 °C 34645.6 hPa NW 62.6 km/h 62.6 km/h 65 % 0 mm 0.0 W/m2 CLR
20:46 -9.3 °C -12.9 °C 34645.6 hPa NW 77.4 km/h 77.4 km/h 65 % 0 mm 0.0 W/m2 CLR
20:51 -9.3 °C -12.9 °C 34645.6 hPa NW 74.5 km/h 74.5 km/h 65 % 0 mm 0.0 W/m2 CLR
20:56 -9.3 °C -12.9 °C 34635.4 hPa WNW 86.4 km/h 86.4 km/h 65 % 0 mm 0.0 W/m2 CLR
21:01 -9.3 °C -12.9 °C 34645.6 hPa NW 59.5 km/h 59.5 km/h 65 % 0 mm 0.0 W/m2 CLR
21:06 -9.3 °C -12.8 °C 34645.6 hPa NNW 71.5 km/h 71.5 km/h 66 % 0 mm 0.0 W/m2 CLR
21:11 -9.3 °C -12.9 °C 34645.6 hPa WNW 59.5 km/h 59.5 km/h 66 % 0 mm 0.0 W/m2 CLR
21:16 -9.4 °C -12.9 °C 34659.1 hPa NW 59.5 km/h 59.5 km/h 66 % 0 mm 0.0 W/m2 CLR
21:21 -9.4 °C -12.9 °C 34659.1 hPa NNW 59.5 km/h 59.5 km/h 66 % 0 mm 0.0 W/m2 CLR
21:26 -9.4 °C -12.9 °C 34659.1 hPa NW 50.7 km/h 50.7 km/h 66 % 0 mm 0.0 W/m2 CLR
21:31 -9.4 °C -12.8 °C 34645.6 hPa NNW 68.6 km/h 68.6 km/h 67 % 0 mm 0.0 W/m2 CLR
21:36 -9.4 °C -12.9 °C 34645.6 hPa NW 80.5 km/h 80.5 km/h 66 % 0 mm 0.0 W/m2 CLR
21:41 -9.5 °C -12.9 °C 34645.6 hPa WNW 50.7 km/h 50.7 km/h 67 % 0 mm 0.0 W/m2 CLR
21:46 -9.6 °C -12.9 °C 34645.6 hPa West 56.6 km/h 56.6 km/h 67 % 0 mm 0.0 W/m2 CLR
21:51 -9.6 °C -12.8 °C 34645.6 hPa NW 77.4 km/h 77.4 km/h 68 % 0 mm 0.0 W/m2 CLR
21:56 -9.6 °C -12.8 °C 34645.6 hPa NW 75.2 km/h 75.2 km/h 68 % 0 mm 0.0 W/m2 CLR
22:01 -9.6 °C -12.8 °C 34645.6 hPa NW 65.5 km/h 65.5 km/h 68 % 0 mm 0.0 W/m2 CLR
22:06 -9.6 °C -12.8 °C 34645.6 hPa WNW 89.3 km/h 89.3 km/h 68 % 0 mm 0.0 W/m2 CLR
22:11 -9.6 °C -12.8 °C 34645.6 hPa WNW 89.3 km/h 89.3 km/h 68 % 0 mm 0.0 W/m2 CLR
22:16 -9.6 °C -12.8 °C 34645.6 hPa NW 98.3 km/h 98.3 km/h 68 % 0 mm 0.0 W/m2 CLR
22:21 -9.6 °C -12.8 °C 34645.6 hPa NW 77.4 km/h 77.4 km/h 68 % 0 mm 0.0 W/m2 CLR
22:26 -9.6 °C -12.8 °C 34659.1 hPa NW 65.5 km/h 65.5 km/h 68 % 0 mm 0.0 W/m2 CLR
22:31 -9.6 °C -12.9 °C 34659.1 hPa WNW 74.5 km/h 74.5 km/h 68 % 0 mm 0.0 W/m2 CLR
22:36 -9.7 °C -12.9 °C 34659.1 hPa WNW 74.5 km/h 74.5 km/h 68 % 0 mm 0.0 W/m2 CLR
22:41 -9.7 °C -12.9 °C 34659.1 hPa NW 77.4 km/h 77.4 km/h 68 % 0 mm 0.0 W/m2 CLR
22:46 -9.7 °C -12.8 °C 34659.1 hPa WNW 65.5 km/h 65.5 km/h 69 % 0 mm 0.0 W/m2 CLR
22:51 -9.8 °C -12.9 °C 34659.1 hPa NW 98.3 km/h 98.3 km/h 69 % 0 mm 0.0 W/m2 CLR
22:56 -9.8 °C -12.8 °C 34669.3 hPa NW 71.5 km/h 71.5 km/h 70 % 0 mm 0.0 W/m2 CLR
23:01 -9.8 °C -12.8 °C 34669.3 hPa NW 65.5 km/h 65.5 km/h 70 % 0 mm 0.0 W/m2 CLR
23:06 -9.8 °C -12.8 °C 34669.3 hPa WNW 62.6 km/h 62.6 km/h 70 % 0 mm 0.0 W/m2 CLR
23:11 -9.8 °C -12.8 °C 34669.3 hPa NW 75.2 km/h 75.2 km/h 70 % 0 mm 0.0 W/m2 CLR
23:16 -9.9 °C -12.9 °C 34669.3 hPa NW 62.6 km/h 62.6 km/h 70 % 0 mm 0.0 W/m2 CLR
23:21 -9.9 °C -12.8 °C 34669.3 hPa NW 80.5 km/h 80.5 km/h 71 % 0 mm 0.0 W/m2 CLR
23:26 -9.9 °C -12.8 °C 34669.3 hPa NW 74.5 km/h 74.5 km/h 71 % 0 mm 0.0 W/m2 CLR
23:31 -9.9 °C -12.8 °C 34659.1 hPa NW 62.6 km/h 62.6 km/h 71 % 0 mm 0.0 W/m2 CLR
23:36 -9.9 °C -12.8 °C 34659.1 hPa NW 80.3 km/h 80.3 km/h 71 % 0 mm 0.0 W/m2 CLR
23:41 -9.9 °C -12.8 °C 34659.1 hPa NW 98.3 km/h 98.3 km/h 71 % 0 mm 0.0 W/m2 CLR
23:46 -9.9 °C -12.8 °C 34659.1 hPa NNW 82.9 km/h 82.9 km/h 71 % 0 mm 0.0 W/m2 CLR
23:51 -9.9 °C -12.8 °C 34659.1 hPa WNW 71.5 km/h 71.5 km/h 71 % 0 mm 0.0 W/m2 CLR
23:57 -9.9 °C -12.8 °C 34659.1 hPa NW 98.3 km/h 98.3 km/h 71 % 0 mm 0.0 W/m2
Lo Temps de Massalio
Compliments of Weather Underground - 1.25 mb